This is the latest recevied weather packets stored in our database for station/object JA0ZJX-13. If no packets are shown the sender has not sent any weather packets the latest 1 day(s).
| Time | Temp. | Humidity | Pressure | Rain* | Wind** | Luminosity | Snow |
|---|---|---|---|---|---|---|---|
| 1778010806 | 12.22° C | 67% | 1022.1 hPa | 0 mm | 1.79 m/s, 167° | 0 W/m² | - |
| 1778010215 | 12.22° C | 67% | 1022.3 hPa | 0 mm | 2.24 m/s, 157° | 0 W/m² | - |
| 1778009624 | 12.78° C | 66% | 1022.3 hPa | 0 mm | 1.79 m/s, 153° | 0 W/m² | - |
| 1778009018 | 12.22° C | 66% | 1022.3 hPa | 0 mm | 2.24 m/s, 141° | 0 W/m² | - |
| 1778008407 | 12.22° C | 66% | 1022.4 hPa | 0 mm | 2.24 m/s, 168° | 0 W/m² | - |
| 1778007816 | 12.22° C | 66% | 1022.5 hPa | 0 mm | 3.13 m/s, 152° | 0 W/m² | - |
| 1778007208 | 11.67° C | 67% | 1022.4 hPa | 0 mm | 0.89 m/s, 195° | 0 W/m² | - |
| 1778006618 | 12.22° C | 66% | 1022.4 hPa | 0 mm | 4.02 m/s, 205° | 0 W/m² | - |
| 1778006007 | 12.22° C | 66% | 1022.4 hPa | 0 mm | 3.58 m/s, 133° | 0 W/m² | - |
| 1778005417 | 12.22° C | 66% | 1022.3 hPa | 0 mm | 4.47 m/s, 190° | 0 W/m² | - |
| 1778004811 | 11.67° C | 66% | 1022.2 hPa | 0 mm | 3.58 m/s, 190° | 0 W/m² | - |
| 1778004220 | 11.67° C | 67% | 1022.4 hPa | 0 mm | 3.58 m/s, 138° | 0 W/m² | - |
| 1778003610 | 11.11° C | 69% | 1022.4 hPa | 0 mm | 2.68 m/s, 155° | 0 W/m² | - |
| 1778003017 | 11.11° C | 70% | 1022.4 hPa | 0 mm | 2.68 m/s, 165° | 0 W/m² | - |
| 1778002411 | 11.11° C | 70% | 1022.5 hPa | 0 mm | 2.68 m/s, 172° | 0 W/m² | - |
| 1778001818 | 11.11° C | 72% | 1022.5 hPa | 0 mm | 2.68 m/s, 170° | 0 W/m² | - |
| 1778001207 | 11.11° C | 71% | 1022.6 hPa | 0 mm | 2.68 m/s, 203° | 0 W/m² | - |
| 1778000616 | 11.67° C | 70% | 1022.5 hPa | 0 mm | 2.24 m/s, 210° | 0 W/m² | - |
| 1778000010 | 11.67° C | 68% | 1022.5 hPa | 0 mm | 2.24 m/s, 215° | 0 W/m² | - |
| 1777999420 | 11.67° C | 68% | 1022.5 hPa | 0 mm | 3.58 m/s, 173° | 0 W/m² | - |
| 1777998809 | 11.11° C | 71% | 1022.6 hPa | 0 mm | 2.24 m/s, 191° | 0 W/m² | - |
| 1777998222 | 11.11° C | 71% | 1022.7 hPa | 0 mm | 3.58 m/s, 219° | 0 W/m² | - |
| 1777997609 | 11.67° C | 70% | 1022.8 hPa | 0 mm | 2.68 m/s, 226° | 0 W/m² | - |
| 1777997018 | 11.67° C | 69% | 1022.7 hPa | 0 mm | 2.24 m/s, 183° | 0 W/m² | - |
| 1777996408 | 11.67° C | 68% | 1022.8 hPa | 0 mm | 4.02 m/s, 157° | 0 W/m² | - |
* Rain latest hour (hover to see other rain measurements)
** Current wind speed in m/s (hover to see current wind gust speed)